Time;durP1;ratioP1;P1;durP2;ratioP2;P2;SDS_P1;SDS_P2;PMS_P1;PMS_P2;Temp;Humidity;BMP_temperature;BMP_pressure;BME280_temperature;BME280_humidity;BME280_pressure;Samples;Min_cycle;Max_cycle;Signal;HPM_P1;HPM_P2
2023/12/09 00:02:08;;;;;;;31.27;4.97;;;6.60;99.90;;;;;;5053470;28;20826;-84
2023/12/09 00:04:37;;;;;;;28.20;4.27;;;6.70;99.90;;;;;;5053648;28;20208;-84
2023/12/09 00:07:02;;;;;;;27.23;3.47;;;6.70;99.90;;;;;;5053621;28;20282;-84
2023/12/09 00:09:29;;;;;;;29.00;4.40;;;6.70;99.90;;;;;;5053624;28;20242;-85
2023/12/09 00:11:55;;;;;;;27.35;3.92;;;6.70;99.90;;;;;;5035803;28;20193;-84
2023/12/09 00:14:20;;;;;;;26.93;3.33;;;6.70;99.90;;;;;;5113547;22;20248;-84
2023/12/09 00:19:14;;;;;;;28.75;3.90;;;6.70;99.90;;;;;;5051035;28;20216;-85
2023/12/09 00:21:39;;;;;;;27.93;3.90;;;6.70;99.90;;;;;;5054329;28;20530;-85
2023/12/09 00:24:05;;;;;;;26.80;2.80;;;6.80;99.90;;;;;;5053823;28;20192;-85
2023/12/09 00:26:31;;;;;;;36.37;4.53;;;6.80;99.90;;;;;;5036353;28;20172;-85
2023/12/09 00:28:57;;;;;;;26.53;3.27;;;6.80;99.90;;;;;;5036539;28;20573;-85
2023/12/09 00:31:22;;;;;;;32.87;3.87;;;6.80;99.90;;;;;;5037674;28;20195;-85
2023/12/09 00:33:48;;;;;;;32.00;4.17;;;6.90;99.90;;;;;;5040332;28;20189;-85
2023/12/09 00:36:13;;;;;;;30.33;4.57;;;6.90;99.90;;;;;;5057917;28;20161;-85
2023/12/09 00:38:39;;;;;;;25.70;2.70;;;6.90;99.90;;;;;;5040380;28;20231;-85
2023/12/09 00:41:05;;;;;;;28.20;3.05;;;6.90;99.90;;;;;;5058286;28;20204;-85
2023/12/09 00:43:32;;;;;;;28.13;3.07;;;7.00;99.90;;;;;;5039874;28;20711;-85
2023/12/09 00:45:58;;;;;;;25.08;2.20;;;7.10;99.90;;;;;;5039966;28;20412;-85
2023/12/09 00:48:23;;;;;;;29.17;2.73;;;7.10;99.90;;;;;;5057879;28;20161;-85
2023/12/09 00:50:49;;;;;;;28.10;3.37;;;7.10;99.90;;;;;;5057595;28;20196;-85
2023/12/09 00:53:15;;;;;;;29.23;3.80;;;7.20;99.90;;;;;;5039866;28;20195;-85
2023/12/09 00:55:40;;;;;;;28.17;3.37;;;7.30;99.90;;;;;;5039520;28;20662;-85
2023/12/09 00:58:06;;;;;;;26.43;2.60;;;7.30;99.90;;;;;;5057459;28;20400;-85
2023/12/09 01:00:32;;;;;;;26.37;2.50;;;7.30;99.90;;;;;;5040167;28;20169;-85
2023/12/09 01:02:57;;;;;;;32.63;3.07;;;7.40;99.90;;;;;;5039523;28;20189;-85
2023/12/09 01:05:23;;;;;;;31.20;3.80;;;7.40;99.90;;;;;;5057325;28;20181;-85
2023/12/09 01:07:48;;;;;;;27.37;2.70;;;7.30;99.90;;;;;;5057591;28;20175;-85
2023/12/09 01:10:14;;;;;;;30.30;3.27;;;7.40;99.90;;;;;;5057693;28;20248;-85
2023/12/09 01:12:40;;;;;;;28.10;3.40;;;7.40;99.90;;;;;;5057329;28;20689;-85
2023/12/09 01:15:06;;;;;;;28.27;3.00;;;7.40;99.90;;;;;;5057309;28;20177;-85
2023/12/09 01:17:32;;;;;;;24.52;2.08;;;7.40;99.90;;;;;;5057290;28;20182;-85
2023/12/09 01:19:57;;;;;;;26.50;2.77;;;7.40;99.90;;;;;;5057583;28;20165;-84
2023/12/09 01:22:23;;;;;;;27.07;3.10;;;7.40;99.90;;;;;;5057093;28;20165;-84
2023/12/09 01:24:50;;;;;;;29.37;2.73;;;7.40;99.90;;;;;;5057022;28;20181;-85
2023/12/09 01:27:15;;;;;;;26.08;2.60;;;7.40;99.90;;;;;;5057111;28;20153;-85
2023/12/09 01:29:41;;;;;;;26.87;3.10;;;7.40;99.90;;;;;;5057180;28;20552;-85
2023/12/09 01:32:06;;;;;;;26.40;2.30;;;7.40;99.90;;;;;;5057151;28;20168;-85
2023/12/09 01:34:34;;;;;;;30.30;3.27;;;7.50;99.90;;;;;;5056797;28;20238;-85
2023/12/09 01:36:59;;;;;;;26.70;2.70;;;7.40;99.90;;;;;;5057141;28;20193;-85
2023/12/09 01:39:27;;;;;;;25.87;2.67;;;7.40;99.90;;;;;;5056665;28;20215;-84
2023/12/09 01:41:56;;;;;;;29.02;3.05;;;7.40;99.90;;;;;;5056695;28;20166;-85
2023/12/09 01:44:21;;;;;;;30.35;3.03;;;7.40;99.90;;;;;;5056694;28;20201;-85
2023/12/09 01:46:47;;;;;;;25.07;2.33;;;7.50;99.90;;;;;;5038761;28;20635;-84
2023/12/09 01:49:13;;;;;;;24.00;2.30;;;7.50;99.90;;;;;;5038628;28;20630;-85
2023/12/09 01:51:41;;;;;;;30.40;3.05;;;7.50;99.90;;;;;;5056688;28;20459;-85
2023/12/09 01:54:10;;;;;;;31.25;2.85;;;7.50;99.90;;;;;;5056934;28;20558;-85
2023/12/09 01:56:36;;;;;;;26.40;3.25;;;7.50;99.90;;;;;;5056578;28;20196;-85
2023/12/09 01:59:03;;;;;;;25.50;2.47;;;7.50;99.90;;;;;;5056487;28;20165;-85
2023/12/09 02:01:30;;;;;;;27.33;3.10;;;7.50;99.90;;;;;;5056787;28;20407;-85
2023/12/09 02:03:56;;;;;;;28.02;2.88;;;7.50;99.90;;;;;;5056553;28;20280;-85
2023/12/09 02:06:22;;;;;;;24.23;2.20;;;7.50;99.90;;;;;;5038561;28;20676;-84
2023/12/09 02:08:48;;;;;;;22.90;2.10;;;7.50;99.90;;;;;;5056436;28;20161;-85
2023/12/09 02:11:29;;;;;;;29.40;3.27;;;7.50;99.90;;;;;;5056392;28;20173;-85
2023/12/09 02:14:04;;;;;;;25.23;2.50;;;7.40;99.90;;;;;;5056744;28;20579;-85
2023/12/09 02:16:41;;;;;;;29.65;3.15;;;7.40;99.90;;;;;;5056867;28;20152;-85
2023/12/09 02:19:13;;;;;;;26.02;2.60;;;7.30;99.90;;;;;;5056032;28;20188;-85
2023/12/09 02:21:58;;;;;;;23.80;2.50;;;7.30;99.90;;;;;;5038269;28;20168;-85
2023/12/09 02:24:24;;;;;;;25.13;2.60;;;7.30;99.90;;;;;;5038286;28;20204;-85
2023/12/09 02:26:51;;;;;;;27.77;2.67;;;7.20;99.90;;;;;;5055999;28;20161;-85
2023/12/09 02:29:18;;;;;;;36.83;4.35;;;7.20;99.90;;;;;;5038261;28;20630;-85
2023/12/09 02:34:15;;;;;;;32.28;2.92;;;7.20;99.90;;;;;;5136247;22;20244;-85
2023/12/09 02:36:44;;;;;;;31.52;2.92;;;7.20;99.90;;;;;;5055969;28;20228;-85
2023/12/09 02:39:12;;;;;;;24.92;2.25;;;7.10;99.90;;;;;;5055881;28;20215;-85
2023/12/09 02:41:40;;;;;;;27.10;3.17;;;7.10;99.90;;;;;;5055509;28;20191;-85
2023/12/09 02:44:06;;;;;;;22.92;2.00;;;7.00;99.90;;;;;;5055624;28;20208;-85
2023/12/09 02:46:32;;;;;;;22.00;1.85;;;7.00;99.90;;;;;;5055762;28;20223;-85
2023/12/09 02:49:01;;;;;;;34.33;2.80;;;6.90;99.90;;;;;;5037669;28;20259;-85
2023/12/09 02:51:26;;;;;;;22.77;2.60;;;6.90;99.90;;;;;;5038140;28;20527;-85
2023/12/09 02:53:58;;;;;;;23.37;2.47;;;6.80;99.90;;;;;;5054618;28;20181;-85
2023/12/09 02:56:23;;;;;;;23.10;2.55;;;6.70;99.90;;;;;;5037220;28;20550;-85
2023/12/09 02:58:49;;;;;;;22.97;2.60;;;6.70;99.90;;;;;;5055081;28;20172;-85
2023/12/09 03:01:15;;;;;;;25.17;2.43;;;6.60;99.90;;;;;;5055263;28;20260;-85
2023/12/09 03:03:40;;;;;;;23.00;3.60;;;6.60;99.90;;;;;;5037184;28;20756;-85
2023/12/09 03:06:09;;;;;;;26.57;3.03;;;6.60;99.90;;;;;;5055204;28;20221;-85
2023/12/09 03:08:35;;;;;;;35.15;3.00;;;6.50;99.90;;;;;;5054943;28;20630;-85
2023/12/09 03:11:00;;;;;;;23.23;2.70;;;6.50;99.90;;;;;;5054936;28;20157;-84
2023/12/09 03:13:26;;;;;;;25.47;2.73;;;6.50;99.90;;;;;;5054812;28;20172;-85
2023/12/09 03:15:52;;;;;;;30.93;3.57;;;6.40;99.90;;;;;;5036779;28;20554;-85
2023/12/09 03:18:18;;;;;;;25.33;3.30;;;6.40;99.90;;;;;;5036662;28;20411;-85
2023/12/09 03:20:43;;;;;;;25.27;2.60;;;6.30;99.90;;;;;;5036724;28;20411;-85
2023/12/09 03:23:09;;;;;;;24.20;3.10;;;6.20;99.90;;;;;;5192199;22;20298;-82
2023/12/09 03:25:34;;;;;;;25.37;3.47;;;6.20;99.90;;;;;;5371023;22;1343035;-85
2023/12/09 03:28:00;;;;;;;27.37;4.10;;;6.00;99.90;;;;;;5037057;28;20251;-83
2023/12/09 03:30:26;;;;;;;25.17;3.60;;;6.00;99.90;;;;;;5055039;28;20169;-83
2023/12/09 03:32:51;;;;;;;25.10;3.70;;;5.90;99.90;;;;;;5036680;28;20173;-83
2023/12/09 03:35:17;;;;;;;24.93;3.70;;;5.80;99.90;;;;;;5036906;28;20218;-83
2023/12/09 03:37:43;;;;;;;27.60;3.47;;;5.80;99.90;;;;;;5054391;28;20708;-83
2023/12/09 03:40:11;;;;;;;25.00;3.93;;;5.80;99.90;;;;;;5054645;28;20176;-82
2023/12/09 03:42:37;;;;;;;27.63;3.08;;;5.80;99.90;;;;;;5036871;28;20173;-82
2023/12/09 03:45:03;;;;;;;29.80;5.17;;;5.80;99.90;;;;;;5054235;28;20184;-85
2023/12/09 03:47:28;;;;;;;25.73;3.20;;;5.70;99.90;;;;;;5036643;28;20408;-85
2023/12/09 03:49:54;;;;;;;24.80;2.90;;;5.70;99.90;;;;;;5054476;28;20801;-85
2023/12/09 03:52:20;;;;;;;24.83;3.23;;;5.70;99.90;;;;;;5054350;28;20619;-85
2023/12/09 03:54:45;;;;;;;25.50;3.07;;;5.60;99.90;;;;;;5036360;28;20197;-85
2023/12/09 03:57:13;;;;;;;24.80;3.67;;;5.50;99.90;;;;;;5054620;28;20165;-85
2023/12/09 03:59:39;;;;;;;25.23;3.60;;;5.50;99.90;;;;;;5036295;28;20177;-85
2023/12/09 04:02:05;;;;;;;29.15;3.60;;;5.50;99.90;;;;;;5036384;28;20173;-85
2023/12/09 04:04:31;;;;;;;24.57;2.57;;;5.50;99.90;;;;;;5054046;28;20270;-85
2023/12/09 04:06:56;;;;;;;23.37;2.50;;;5.40;99.90;;;;;;5060360;28;20237;-85
2023/12/09 04:09:22;;;;;;;24.27;2.70;;;5.40;99.90;;;;;;5042789;28;20165;-85
2023/12/09 04:11:48;;;;;;;24.63;3.07;;;5.30;99.90;;;;;;5060899;28;20161;-85
2023/12/09 04:14:15;;;;;;;30.00;3.43;;;5.40;99.90;;;;;;5061015;28;20586;-85
2023/12/09 04:16:44;;;;;;;23.55;2.88;;;5.30;99.90;;;;;;5042924;28;20414;-85
2023/12/09 04:19:09;;;;;;;33.33;2.97;;;5.30;99.90;;;;;;5042987;28;20175;-85
2023/12/09 04:21:55;;;;;;;28.87;3.20;;;5.30;99.90;;;;;;5061206;28;20157;-85
2023/12/09 04:24:21;;;;;;;24.20;2.53;;;5.20;99.90;;;;;;5060523;28;20332;-85
2023/12/09 04:26:46;;;;;;;26.30;3.43;;;5.20;99.90;;;;;;5060611;28;20227;-85
2023/12/09 04:29:12;;;;;;;24.10;3.30;;;5.20;99.90;;;;;;5060208;28;20176;-85
2023/12/09 04:31:39;;;;;;;25.50;3.63;;;5.20;99.90;;;;;;5060335;28;20557;-85
2023/12/09 04:34:05;;;;;;;27.23;3.83;;;5.20;99.90;;;;;;5043015;28;20219;-85
2023/12/09 04:36:30;;;;;;;29.90;3.37;;;5.20;99.90;;;;;;5060725;28;20530;-85
2023/12/09 04:38:56;;;;;;;28.10;3.30;;;5.20;99.90;;;;;;5042684;28;20189;-85
2023/12/09 04:41:22;;;;;;;25.70;3.93;;;5.20;99.90;;;;;;5042847;28;20226;-85
2023/12/09 04:43:48;;;;;;;31.05;3.35;;;5.10;99.90;;;;;;5042493;28;20197;-85
2023/12/09 04:46:13;;;;;;;28.83;3.70;;;5.10;99.90;;;;;;5060747;28;20184;-85
2023/12/09 04:48:39;;;;;;;25.70;3.30;;;5.10;99.90;;;;;;5060646;28;20619;-85
2023/12/09 04:51:05;;;;;;;25.87;4.03;;;5.00;99.90;;;;;;5060461;28;20165;-85
2023/12/09 04:53:30;;;;;;;25.13;3.40;;;5.00;99.90;;;;;;5060702;28;20670;-85
2023/12/09 04:55:56;;;;;;;30.17;3.83;;;5.00;99.90;;;;;;5042745;28;20443;-85
2023/12/09 04:58:22;;;;;;;29.23;4.20;;;5.00;99.90;;;;;;5060174;28;20165;-85
2023/12/09 05:00:48;;;;;;;26.00;3.40;;;5.00;99.90;;;;;;5041712;28;20648;-85
2023/12/09 05:03:14;;;;;;;29.10;4.93;;;4.90;99.90;;;;;;5060082;28;20264;-85
2023/12/09 05:05:39;;;;;;;25.57;3.40;;;4.90;99.90;;;;;;5060554;28;20197;-85
2023/12/09 05:08:05;;;;;;;28.90;3.50;;;4.90;99.90;;;;;;5060401;28;20160;-85
2023/12/09 05:10:30;;;;;;;26.53;3.73;;;4.90;99.90;;;;;;5060255;28;20244;-85
2023/12/09 05:12:56;;;;;;;25.20;3.70;;;4.80;99.90;;;;;;5060402;28;20169;-85
2023/12/09 05:15:22;;;;;;;26.00;3.30;;;4.80;99.90;;;;;;5042434;28;20200;-85
2023/12/09 05:17:48;;;;;;;26.83;3.83;;;4.70;99.90;;;;;;5057679;28;20403;-85
2023/12/09 05:20:14;;;;;;;27.83;3.60;;;4.70;99.90;;;;;;5039379;28;20823;-85
2023/12/09 05:22:39;;;;;;;25.50;3.10;;;4.70;99.90;;;;;;5057237;28;20534;-85
2023/12/09 05:25:05;;;;;;;28.43;4.40;;;4.80;99.90;;;;;;5039283;28;20665;-85
2023/12/09 05:27:31;;;;;;;26.85;3.85;;;4.80;99.90;;;;;;5057098;28;20205;-85
2023/12/09 05:29:57;;;;;;;28.10;4.30;;;4.80;99.90;;;;;;5039290;28;20176;-85
2023/12/09 05:32:23;;;;;;;28.43;4.90;;;4.80;99.90;;;;;;5057435;28;20453;-85
2023/12/09 05:34:48;;;;;;;31.90;5.23;;;4.80;99.90;;;;;;5039110;28;20295;-85
2023/12/09 05:37:14;;;;;;;29.03;4.30;;;4.80;99.90;;;;;;5039118;28;20169;-85
2023/12/09 05:39:39;;;;;;;28.20;4.23;;;4.80;99.90;;;;;;5038866;28;20169;-85
2023/12/09 05:42:05;;;;;;;26.27;3.97;;;4.80;99.90;;;;;;5057201;28;20331;-85
2023/12/09 05:44:31;;;;;;;25.30;3.43;;;4.70;99.90;;;;;;5038712;28;20205;-85
2023/12/09 05:46:57;;;;;;;26.47;3.90;;;4.70;99.90;;;;;;5039066;28;20404;-85
2023/12/09 05:49:22;;;;;;;27.60;3.90;;;4.70;99.90;;;;;;5056757;28;20233;-85
2023/12/09 05:51:48;;;;;;;27.60;4.50;;;4.70;99.90;;;;;;5038826;28;20204;-85
2023/12/09 05:54:14;;;;;;;25.87;3.20;;;4.70;99.90;;;;;;5056443;28;20272;-85
2023/12/09 05:56:46;;;;;;;24.10;3.50;;;4.60;99.90;;;;;;5038775;28;20170;-85
2023/12/09 05:59:15;;;;;;;24.02;3.83;;;4.50;99.90;;;;;;5058172;28;20180;-85
2023/12/09 06:01:41;;;;;;;25.02;4.05;;;4.50;99.90;;;;;;5057242;28;20199;-85
2023/12/09 06:04:06;;;;;;;26.87;3.83;;;4.50;99.90;;;;;;5056777;28;20268;-85
2023/12/09 06:06:32;;;;;;;23.57;3.47;;;4.40;99.90;;;;;;5038779;28;20169;-85
2023/12/09 06:08:57;;;;;;;24.50;3.47;;;4.50;99.90;;;;;;5057506;28;20503;-85
2023/12/09 06:11:26;;;;;;;25.60;3.80;;;4.50;99.90;;;;;;5056955;28;20695;-82
2023/12/09 06:13:52;;;;;;;30.77;4.45;;;4.50;99.90;;;;;;5056739;28;20204;-82
2023/12/09 06:16:21;;;;;;;25.57;3.17;;;4.60;99.90;;;;;;5038711;28;20169;-82
2023/12/09 06:18:50;;;;;;;25.20;3.55;;;4.50;99.90;;;;;;5038357;28;20412;-82
2023/12/09 06:21:23;;;;;;;27.25;3.78;;;4.60;99.90;;;;;;5056123;28;20168;-82
2023/12/09 06:23:49;;;;;;;23.45;3.75;;;4.60;99.90;;;;;;5038541;28;20205;-82
2023/12/09 06:26:17;;;;;;;23.33;3.22;;;4.60;99.90;;;;;;5038233;28;20185;-85
2023/12/09 06:33:39;;;;;;;26.70;3.72;;;4.50;99.90;;;;;;5053916;28;20258;-84
2023/12/09 06:38:37;;;;;;;24.83;3.53;;;4.50;99.90;;;;;;5052693;28;20215;-84
2023/12/09 06:41:03;;;;;;;24.13;3.60;;;4.60;99.90;;;;;;5038153;28;20232;-84
2023/12/09 06:43:29;;;;;;;28.38;3.53;;;4.50;99.90;;;;;;5037430;28;20193;-84
2023/12/09 06:45:55;;;;;;;23.77;3.03;;;4.50;99.90;;;;;;5055596;28;20162;-85
2023/12/09 06:48:23;;;;;;;25.30;3.77;;;4.60;99.90;;;;;;5055528;28;20244;-84
2023/12/09 06:50:49;;;;;;;24.90;3.63;;;4.60;99.90;;;;;;5055431;28;20161;-85
2023/12/09 06:53:15;;;;;;;26.67;4.70;;;4.50;99.90;;;;;;5037264;28;20173;-84
2023/12/09 06:55:44;;;;;;;28.37;3.50;;;4.60;99.90;;;;;;5055547;28;20188;-84
2023/12/09 06:58:13;;;;;;;25.33;4.30;;;4.60;99.90;;;;;;5055353;28;20561;-84
2023/12/09 07:00:38;;;;;;;27.48;4.32;;;4.60;99.90;;;;;;5036836;28;20264;-84
2023/12/09 07:03:04;;;;;;;28.03;4.07;;;4.70;99.90;;;;;;5036381;28;20283;-84
2023/12/09 07:05:31;;;;;;;24.58;3.10;;;4.60;99.90;;;;;;5036511;28;20200;-83
2023/12/09 07:07:56;;;;;;;25.25;3.70;;;4.60;99.90;;;;;;5054081;28;20165;-84
2023/12/09 07:10:22;;;;;;;23.90;3.70;;;4.70;99.90;;;;;;5036169;28;20176;-84
2023/12/09 07:13:06;;;;;;;27.40;3.73;;;4.70;99.90;;;;;;5054202;28;20162;-84
2023/12/09 07:15:31;;;;;;;25.20;3.50;;;4.70;99.90;;;;;;5053750;28;20192;-84
2023/12/09 07:17:57;;;;;;;26.70;3.57;;;4.70;99.90;;;;;;5053899;28;20166;-84
2023/12/09 07:20:23;;;;;;;25.70;3.30;;;4.70;99.90;;;;;;5035769;28;20173;-84
2023/12/09 07:22:51;;;;;;;27.73;4.37;;;4.70;99.90;;;;;;5036209;28;20169;-84
2023/12/09 07:25:20;;;;;;;26.60;3.60;;;4.70;99.90;;;;;;5036115;28;20279;-84
2023/12/09 07:27:45;;;;;;;31.52;5.00;;;4.70;99.90;;;;;;5055055;28;20219;-84
2023/12/09 07:30:20;;;;;;;28.77;3.47;;;4.70;99.90;;;;;;5055572;28;20165;-84
2023/12/09 07:32:46;;;;;;;27.40;3.70;;;4.70;99.90;;;;;;5055545;28;20668;-84
2023/12/09 07:35:13;;;;;;;25.07;3.13;;;4.70;99.90;;;;;;5055590;28;20189;-84
2023/12/09 07:37:38;;;;;;;25.23;3.00;;;4.70;99.90;;;;;;5055167;28;20657;-84
2023/12/09 07:40:11;;;;;;;26.97;3.77;;;4.70;99.90;;;;;;5055193;28;20161;-84
2023/12/09 07:42:37;;;;;;;25.23;3.70;;;4.80;99.90;;;;;;5037512;28;20169;-84
2023/12/09 07:45:04;;;;;;;25.50;2.88;;;4.80;99.90;;;;;;5055057;28;20188;-84
2023/12/09 07:47:30;;;;;;;25.00;3.17;;;4.80;99.90;;;;;;5037039;28;20618;-84
2023/12/09 07:49:58;;;;;;;29.77;4.03;;;4.80;99.90;;;;;;5055600;28;20169;-84
2023/12/09 07:52:24;;;;;;;28.70;3.00;;;4.80;99.90;;;;;;5055954;28;20181;-84
2023/12/09 07:54:49;;;;;;;33.00;5.33;;;4.90;99.90;;;;;;5055499;28;20189;-84
2023/12/09 07:57:18;;;;;;;25.73;3.67;;;5.00;99.90;;;;;;5038255;28;20180;-84
2023/12/09 07:59:43;;;;;;;31.63;4.32;;;5.00;99.90;;;;;;5056225;28;20169;-84
2023/12/09 08:02:12;;;;;;;30.20;5.20;;;5.10;99.90;;;;;;5054549;28;20192;-83
2023/12/09 08:04:40;;;;;;;27.48;3.72;;;5.10;99.90;;;;;;5054084;28;20220;-83
2023/12/09 08:07:06;;;;;;;30.33;3.95;;;5.10;99.90;;;;;;5036468;28;20168;-83
2023/12/09 08:09:34;;;;;;;30.40;4.00;;;5.20;99.90;;;;;;5053554;28;20149;-84
2023/12/09 08:12:00;;;;;;;28.88;5.00;;;5.20;99.90;;;;;;5053159;28;20161;-83
2023/12/09 08:14:26;;;;;;;31.43;4.20;;;5.30;99.90;;;;;;5053081;28;20670;-83
2023/12/09 08:16:52;;;;;;;29.57;4.10;;;5.30;99.90;;;;;;5053171;28;20169;-83
2023/12/09 08:19:18;;;;;;;30.75;3.90;;;5.40;99.90;;;;;;5053373;28;20231;-83
2023/12/09 08:21:43;;;;;;;27.67;3.63;;;5.50;99.90;;;;;;5035019;28;20169;-83
2023/12/09 08:24:09;;;;;;;30.70;5.30;;;5.50;99.90;;;;;;5053043;28;20639;-83
2023/12/09 08:26:36;;;;;;;27.80;3.90;;;5.60;99.90;;;;;;5053398;28;20157;-83
2023/12/09 08:29:04;;;;;;;32.15;3.90;;;5.60;99.90;;;;;;5035096;28;20783;-83
2023/12/09 08:31:30;;;;;;;33.22;4.43;;;5.60;99.90;;;;;;5053798;28;20633;-83
2023/12/09 08:33:56;;;;;;;29.73;4.50;;;5.70;99.90;;;;;;5053527;28;20185;-84
2023/12/09 08:36:22;;;;;;;32.38;4.47;;;5.70;99.90;;;;;;5035621;28;20169;-83
2023/12/09 08:38:47;;;;;;;34.55;3.25;;;5.70;99.90;;;;;;5034957;28;20172;-83
2023/12/09 08:41:16;;;;;;;28.93;4.20;;;5.80;99.90;;;;;;5052694;28;20235;-83
2023/12/09 08:43:45;;;;;;;36.33;4.03;;;5.80;99.90;;;;;;5052707;28;20614;-83
2023/12/09 08:46:11;;;;;;;31.08;3.60;;;5.90;99.90;;;;;;5053084;28;20172;-83
2023/12/09 08:48:36;;;;;;;28.60;3.40;;;6.00;99.90;;;;;;5034997;28;20173;-83
2023/12/09 08:51:03;;;;;;;30.07;4.00;;;6.00;99.90;;;;;;5052591;28;20270;-82
2023/12/09 08:53:29;;;;;;;32.40;4.40;;;6.00;99.90;;;;;;5037446;28;20599;-83
2023/12/09 08:55:55;;;;;;;31.33;3.40;;;6.10;99.90;;;;;;5056589;28;20197;-83
2023/12/09 08:58:20;;;;;;;30.70;4.70;;;6.10;99.90;;;;;;5056386;28;20778;-83
2023/12/09 09:00:46;;;;;;;27.80;3.60;;;6.10;99.90;;;;;;5056342;28;20193;-83
2023/12/09 09:03:13;;;;;;;29.77;4.00;;;6.20;99.90;;;;;;5056570;28;20466;-83
2023/12/09 09:05:39;;;;;;;28.83;3.28;;;6.20;99.90;;;;;;5038180;28;20219;-83
2023/12/09 09:08:04;;;;;;;27.90;3.90;;;6.20;99.90;;;;;;5056415;28;20571;-82
2023/12/09 09:10:30;;;;;;;26.03;2.90;;;6.30;99.90;;;;;;5038534;28;20168;-82
2023/12/09 09:12:56;;;;;;;30.63;3.43;;;6.30;99.90;;;;;;5056116;28;20302;-82
2023/12/09 09:15:22;;;;;;;31.20;3.20;;;6.30;99.90;;;;;;5055940;28;20231;-83
2023/12/09 09:17:47;;;;;;;32.30;5.10;;;6.30;99.90;;;;;;5056136;28;20244;-83
2023/12/09 09:20:13;;;;;;;36.77;4.00;;;6.40;99.90;;;;;;5055906;28;20195;-83
2023/12/09 09:22:39;;;;;;;29.80;3.97;;;6.40;99.90;;;;;;5056156;28;20165;-83
2023/12/09 09:25:05;;;;;;;33.50;4.43;;;6.50;99.90;;;;;;5055719;28;20219;-83
2023/12/09 09:27:31;;;;;;;37.43;4.77;;;6.50;99.90;;;;;;5055792;28;20157;-83
2023/12/09 09:29:56;;;;;;;33.57;4.53;;;6.60;99.90;;;;;;5037888;28;20442;-83
2023/12/09 09:32:22;;;;;;;31.33;4.30;;;6.70;99.90;;;;;;5055682;28;20161;-83
2023/12/09 09:34:48;;;;;;;42.20;4.50;;;6.80;99.90;;;;;;5037718;28;20193;-83
2023/12/09 09:37:14;;;;;;;30.90;3.60;;;6.90;99.90;;;;;;5055520;28;20238;-83
2023/12/09 09:39:43;;;;;;;31.92;4.03;;;7.00;99.90;;;;;;5055605;28;20408;-83
2023/12/09 09:42:36;;;;;;;33.55;4.35;;;7.00;99.90;;;;;;5055506;28;20244;-83
2023/12/09 09:45:20;;;;;;;37.20;3.58;;;7.10;99.90;;;;;;5055496;28;20654;-83
2023/12/09 09:47:48;;;;;;;29.17;3.60;;;7.20;99.90;;;;;;5055624;28;20207;-83
2023/12/09 09:50:21;;;;;;;31.40;3.83;;;7.30;99.90;;;;;;5038035;28;20165;-83
2023/12/09 09:52:48;;;;;;;28.85;3.50;;;7.40;99.90;;;;;;5055728;28;20180;-83
2023/12/09 09:55:15;;;;;;;32.72;3.83;;;7.50;99.90;;;;;;5037386;28;20189;-83
2023/12/09 09:57:42;;;;;;;30.13;3.30;;;7.50;99.90;;;;;;5055286;28;20161;-83
2023/12/09 10:00:14;;;;;;;30.30;3.40;;;7.60;99.90;;;;;;5038390;28;20162;-83
2023/12/09 10:02:44;;;;;;;27.35;2.90;;;7.70;99.90;;;;;;5055102;28;20488;-83
2023/12/09 10:05:10;;;;;;;28.08;3.08;;;7.80;99.90;;;;;;5055141;28;20600;-83
2023/12/09 10:07:37;;;;;;;27.95;2.65;;;7.90;99.90;;;;;;5055095;28;20672;-83
2023/12/09 10:10:03;;;;;;;33.13;4.63;;;7.90;99.90;;;;;;5055285;28;20577;-83
2023/12/09 10:12:30;;;;;;;31.08;3.45;;;8.00;99.90;;;;;;5055119;28;20180;-83
2023/12/09 10:14:56;;;;;;;30.08;4.45;;;8.10;99.90;;;;;;5036556;28;20717;-84
2023/12/09 10:17:23;;;;;;;28.75;3.00;;;8.10;99.90;;;;;;5055319;28;20169;-83
2023/12/09 10:19:48;;;;;;;29.40;2.92;;;8.20;99.90;;;;;;5055602;28;20196;-83
2023/12/09 10:22:14;;;;;;;29.73;3.07;;;8.30;99.90;;;;;;5057052;28;20208;-83
2023/12/09 10:24:51;;;;;;;30.13;3.67;;;8.30;99.90;;;;;;5037444;28;20211;-84
2023/12/09 10:27:19;;;;;;;30.98;2.60;;;8.40;99.90;;;;;;5056546;28;20392;-84
2023/12/09 10:29:45;;;;;;;30.60;3.65;;;8.40;99.90;;;;;;5039363;28;20657;-84
2023/12/09 10:32:12;;;;;;;33.25;2.78;;;8.50;99.90;;;;;;5055327;28;20240;-84
2023/12/09 10:34:39;;;;;;;28.48;3.67;;;8.50;99.90;;;;;;5054888;28;20181;-83
2023/12/09 10:37:07;;;;;;;28.33;3.72;;;8.60;99.90;;;;;;5054918;28;20676;-83
2023/12/09 10:39:34;;;;;;;32.60;3.03;;;8.70;99.90;;;;;;5058462;28;20189;-84
2023/12/09 10:41:59;;;;;;;31.33;3.20;;;8.80;99.90;;;;;;5059083;28;20173;-84
2023/12/09 10:44:25;;;;;;;26.07;3.70;;;8.90;99.90;;;;;;5058742;28;20231;-84
2023/12/09 10:46:51;;;;;;;27.33;3.30;;;9.10;99.90;;;;;;5041266;28;20408;-84
2023/12/09 10:49:18;;;;;;;25.43;2.50;;;9.10;99.90;;;;;;5058441;28;20200;-84
2023/12/09 10:51:44;;;;;;;24.95;2.72;;;9.10;99.90;;;;;;5037410;28;20165;-84
2023/12/09 10:54:10;;;;;;;28.00;2.73;;;9.00;99.90;;;;;;5054579;28;20207;-83
2023/12/09 10:56:36;;;;;;;29.33;2.90;;;9.00;99.90;;;;;;5054797;28;20161;-83
2023/12/09 10:59:03;;;;;;;27.08;3.10;;;9.00;99.90;;;;;;5036831;28;20161;-84
2023/12/09 11:01:29;;;;;;;25.80;3.00;;;9.00;99.90;;;;;;5056284;28;20169;-83
2023/12/09 11:03:56;;;;;;;26.23;2.55;;;9.00;99.90;;;;;;5056308;28;20205;-84
2023/12/09 11:06:24;;;;;;;26.80;2.30;;;9.00;99.90;;;;;;5055839;28;20241;-84
2023/12/09 11:08:51;;;;;;;25.10;2.10;;;8.90;99.90;;;;;;5055541;28;20158;-84
2023/12/09 11:11:18;;;;;;;26.33;2.92;;;8.90;99.90;;;;;;5054987;28;20693;-83
2023/12/09 11:13:46;;;;;;;26.10;2.80;;;8.90;99.90;;;;;;5055295;28;20565;-84
2023/12/09 11:16:20;;;;;;;27.35;2.85;;;8.90;99.90;;;;;;5054222;28;20161;-83
2023/12/09 11:18:54;;;;;;;32.33;2.58;;;8.80;99.90;;;;;;5055445;28;20268;-84
2023/12/09 11:21:21;;;;;;;31.90;3.33;;;8.90;99.90;;;;;;5055128;28;20153;-83
2023/12/09 11:23:51;;;;;;;24.75;2.38;;;8.80;99.90;;;;;;5054127;28;20197;-83
2023/12/09 11:26:19;;;;;;;26.17;2.20;;;8.80;99.90;;;;;;5037395;28;20157;-83
2023/12/09 11:29:03;;;;;;;24.83;2.17;;;8.80;99.90;;;;;;5054569;28;20271;-84
2023/12/09 11:31:32;;;;;;;24.10;2.50;;;8.80;99.90;;;;;;5054353;28;20156;-83
2023/12/09 11:34:01;;;;;;;26.45;2.90;;;8.70;99.90;;;;;;5054243;28;20667;-83
2023/12/09 11:36:29;;;;;;;27.00;2.20;;;8.80;99.90;;;;;;5036299;28;20239;-84
2023/12/09 11:38:57;;;;;;;24.80;2.67;;;8.80;99.90;;;;;;5055019;28;20599;-84
2023/12/09 11:41:25;;;;;;;24.88;2.80;;;8.80;99.90;;;;;;5053782;28;20684;-84
2023/12/09 11:43:51;;;;;;;28.17;2.75;;;8.80;99.90;;;;;;5035590;28;20574;-83
2023/12/09 11:46:20;;;;;;;22.30;1.80;;;8.90;99.90;;;;;;5035640;28;20177;-83
2023/12/09 11:48:49;;;;;;;24.75;2.17;;;8.90;99.90;;;;;;5054018;28;20164;-82
2023/12/09 11:51:14;;;;;;;28.10;3.00;;;8.80;99.90;;;;;;5053625;28;20624;-83
2023/12/09 11:54:01;;;;;;;23.50;1.80;;;8.90;99.90;;;;;;5053627;28;20197;-83
2023/12/09 11:56:28;;;;;;;28.50;2.70;;;8.90;99.90;;;;;;5053616;28;20180;-83
2023/12/09 11:58:55;;;;;;;22.75;1.77;;;8.90;99.90;;;;;;5053545;28;20184;-83
2023/12/09 12:01:23;;;;;;;24.75;2.90;;;9.00;99.90;;;;;;5054069;28;20179;-83
2023/12/09 12:03:49;;;;;;;25.33;2.35;;;9.10;99.90;;;;;;5053481;28;20228;-83
2023/12/09 12:06:17;;;;;;;26.02;2.22;;;9.00;99.90;;;;;;5054084;28;20184;-83
2023/12/09 12:08:50;;;;;;;24.90;2.25;;;9.10;99.90;;;;;;5053561;28;20241;-83
2023/12/09 12:11:17;;;;;;;22.63;1.75;;;9.10;99.90;;;;;;5054094;28;20161;-82
2023/12/09 12:13:44;;;;;;;22.42;2.05;;;9.00;99.90;;;;;;5054227;28;20196;-81
2023/12/09 12:16:10;;;;;;;25.67;2.05;;;9.00;99.90;;;;;;5055338;28;20195;-82
2023/12/09 12:18:36;;;;;;;23.35;2.40;;;9.00;99.90;;;;;;5055164;28;20173;-82
2023/12/09 12:21:03;;;;;;;24.63;1.90;;;9.00;99.90;;;;;;5055330;28;20161;-83
2023/12/09 12:23:29;;;;;;;25.20;2.17;;;8.90;99.90;;;;;;5054530;28;20212;-83
2023/12/09 12:25:55;;;;;;;29.50;2.33;;;8.90;99.90;;;;;;5055110;28;20169;-83
2023/12/09 12:28:22;;;;;;;24.35;2.00;;;8.80;99.90;;;;;;5057989;28;20158;-83
2023/12/09 12:30:55;;;;;;;28.50;1.98;;;8.80;99.90;;;;;;5057942;28;20157;-83
2023/12/09 12:33:31;;;;;;;22.75;1.88;;;8.90;99.90;;;;;;5057309;28;20172;-82
2023/12/09 12:35:58;;;;;;;23.92;2.00;;;8.80;99.90;;;;;;5039144;28;20184;-82
2023/12/09 12:38:26;;;;;;;23.42;2.00;;;8.70;99.90;;;;;;5057477;28;20180;-82
2023/12/09 12:40:53;;;;;;;25.50;2.13;;;8.70;99.90;;;;;;5056943;28;20169;-82
2023/12/09 12:43:19;;;;;;;22.85;2.03;;;8.70;99.90;;;;;;5056743;28;20193;-82
2023/12/09 12:45:46;;;;;;;22.80;1.67;;;8.60;99.90;;;;;;5057390;28;20265;-82
2023/12/09 12:48:12;;;;;;;23.77;2.10;;;8.50;99.90;;;;;;5038996;28;20712;-82
2023/12/09 12:50:38;;;;;;;23.70;2.10;;;8.50;99.90;;;;;;5038844;28;20177;-82
2023/12/09 12:53:03;;;;;;;29.40;2.47;;;8.50;99.90;;;;;;5056797;28;20533;-82
2023/12/09 12:55:29;;;;;;;24.43;2.17;;;8.50;99.90;;;;;;5056495;28;20188;-82
2023/12/09 12:57:55;;;;;;;26.90;2.17;;;8.40;99.90;;;;;;5057089;28;20176;-81
2023/12/09 13:00:21;;;;;;;22.63;2.03;;;8.40;99.90;;;;;;5056689;28;20161;-82